Airports Norway Brønnøysund Airport

Brønnøysund Airport (ENBN / BNN)

Facts about Brønnøysund Airport

Name Brønnøysund Airport
City Bronnoysund
Country Norway
ICAO code ENBN
IATA code BNN
Elevation 7.6200 meters (25 feet)

Weather

METAR

Metar data retrieved Friday, 19 July 2024 at 23:25 UTC (2 minutes ago)

ENBN 192250Z AUTO 05004KT 9999NDV FEW021/// 12/12 Q1018

Live traffic

Navigraph Charts (account required)